Terminal Aerodrome Forecast
Issued by NWS Wilmington, NC

Home | Current Version | Previous Version | Text Only | Print | Product List | Glossary On
Versions: 1 2 3 4 5 6 7 8 9 10 11 12
119
FTUS42 KILM 262328
TAFFLO
TAF
KFLO 262328Z 2700/2724 VRB04KT P6SM SKC
     FM271400 17007KT P6SM SKC
     FM271900 13007KT P6SM FEW250=

USA.gov is the U.S. government's official web portal to all federal, state and local government web resources and services.